Pathein, Burma
Current Conditions -  °F | °C
As of 10:00 AM on Wednesday 28 Jan 2015 (Local Time) from VYYY Reporting Station
Clear Clear  
Wind Chill: 81°   Ceiling: Unl
Heat Index: 83°   Visibility: 4mi
Dew Point: 66°   Wind: 3mph
Humidity: 61%   Direction: 50°NE
Pressure: 29.97"   Gusts: NA
Location:  16.78°N, 94.73°E
Report Text: VYYY 280400Z 05003KT 7000 NSC 27/19 Q1015 NOSIG
Loading
Personal Weather Stations






























Interactive Weather Map New forecast layout! Learn more

10-Day Weather Forecast

Advertisements
Track Severe Weather on mobile